Lagoa Santa, Brazil
Current Conditions -  °F | °C
As of 5:00 PM on Sunday 23 Nov 2014 (Local Time) from SBLS Reporting Station
Light Rain Light Rain  
Wind Chill: 70°   Ceiling: 3000
Heat Index: 70°   Visibility: 4mi
Dew Point: 66°   Wind: 10mph
Humidity: 88%   Direction: 170°S
Pressure: 29.97"   Gusts: NA
Location:  19.65°S, 43.9°W
Report Text: SBLS 231900Z 17009KT 6000 -RA BKN030 BKN100 21/19 Q1015 RETS
Loading
Personal Weather Stations






























Interactive Weather Map New forecast layout! Learn more

10-Day Weather Forecast

Advertisements
Track Severe Weather on mobile